KLOZ/LOZ METAR and TAF weather

Enter ICAO airport designator
Station Type Date Time Source
KLOZ METAR 2021/09/27 06:53 UTC NOAA

KLOZ 270653Z AUTO 00000KT 10SM CLR 11/10 A3012 RMK AO2 SLP193 T01060100


Station Type Date Time Source
KLOZ Decoded METAR 2021/09/27 06:53 UTC NOAA

LONDON-CORBIN AIRPORT, KY, United States (KLOZ) 37-05N 084-04W 362M
Sep 27, 2021 - 02:53 AM EDT / 2021.09.27 0653 UTC
Wind: Calm:0
Visibility: 10 mile(s):0
Sky conditions: clear
Temperature: 51.1 F (10.6 C)
Dew Point: 50.0 F (10.0 C)
Relative Humidity: 96%
Pressure (altimeter): 30.12 in. Hg (1019 hPa)
ob: KLOZ 270653Z AUTO 00000KT 10SM CLR 11/10 A3012 RMK AO2 SLP193 T01060100
cycle: 7

Station Type Date Time Source
KLOZ TAF 2021/09/27 06:27 UTC NOAA

TAF KLOZ 270525Z 2706/2806 00000KT P6SM SKC
TEMPO 2708/2712 3SM BR
FM271500 22008KT P6SM SKC
FM280000 00000KT P6SM SCT180

Example: see airport list